createdAt,value
2023-04-26T00:01:53.276Z,4.07
2023-04-26T00:04:20.164Z,4.53
2023-04-26T00:06:49.189Z,3.92
2023-04-26T00:09:15.963Z,3.78
2023-04-26T00:11:42.543Z,3.58
2023-04-26T00:14:09.169Z,4.00
2023-04-26T00:16:35.977Z,5.07
2023-04-26T00:19:02.619Z,3.97
2023-04-26T00:21:29.202Z,3.17
2023-04-26T00:23:55.888Z,3.50
2023-04-26T00:26:22.650Z,3.80
2023-04-26T00:28:49.403Z,3.78
2023-04-26T00:31:16.618Z,3.10
2023-04-26T00:33:44.177Z,2.90
2023-04-26T00:36:10.905Z,3.45
2023-04-26T00:38:37.479Z,3.40
2023-04-26T00:41:04.097Z,3.42
2023-04-26T00:43:30.695Z,4.18
2023-04-26T00:45:57.346Z,3.55
2023-04-26T00:48:23.915Z,3.08
2023-04-26T00:50:50.469Z,4.10
2023-04-26T00:53:18.187Z,3.65
2023-04-26T00:55:44.917Z,4.75
2023-04-26T00:58:11.556Z,4.47
2023-04-26T01:00:38.170Z,5.22
2023-04-26T01:03:04.928Z,4.47
2023-04-26T01:05:32.104Z,4.93
2023-04-26T01:07:59.827Z,5.05
2023-04-26T01:10:26.760Z,3.88
2023-04-26T01:12:53.814Z,3.83
2023-04-26T01:15:20.595Z,4.13
2023-04-26T01:17:49.758Z,3.92
2023-04-26T01:20:16.383Z,4.03
2023-04-26T01:22:42.958Z,4.60
2023-04-26T01:25:12.053Z,4.95
2023-04-26T01:27:39.089Z,5.70
2023-04-26T01:30:06.257Z,4.07
2023-04-26T01:32:32.931Z,3.92
2023-04-26T01:35:00.500Z,4.93
2023-04-26T01:37:27.130Z,4.95
2023-04-26T01:39:53.875Z,5.22
2023-04-26T01:42:20.485Z,5.97
2023-04-26T01:44:47.137Z,5.97
2023-04-26T01:47:13.718Z,5.05
2023-04-26T01:49:41.566Z,4.38
2023-04-26T01:52:08.196Z,4.82
2023-04-26T01:54:34.830Z,4.60
2023-04-26T01:57:02.538Z,4.53
2023-04-26T01:59:29.230Z,4.70
2023-04-26T02:01:55.814Z,4.55
2023-04-26T02:04:24.064Z,4.07
2023-04-26T02:06:50.797Z,4.13
2023-04-26T02:09:18.252Z,5.00
2023-04-26T02:11:45.050Z,3.80
2023-04-26T02:14:11.919Z,4.00
2023-04-26T02:16:40.324Z,3.22
2023-04-26T02:19:10.751Z,3.45
2023-04-26T02:21:51.934Z,3.65
2023-04-26T02:24:18.586Z,4.70
2023-04-26T02:26:45.575Z,4.78
2023-04-26T02:29:12.205Z,4.82
2023-04-26T02:31:39.114Z,5.07
2023-04-26T02:34:06.313Z,5.03
2023-04-26T02:36:33.427Z,5.22
2023-04-26T02:39:00.338Z,5.80
2023-04-26T02:41:27.943Z,5.22
2023-04-26T02:43:54.508Z,6.47
2023-04-26T02:46:21.126Z,5.03
2023-04-26T02:48:47.722Z,3.97
2023-04-26T02:51:14.331Z,4.43
2023-04-26T02:53:40.945Z,5.10
2023-04-26T02:56:07.721Z,4.63
2023-04-26T02:58:34.306Z,4.32
2023-04-26T03:01:01.782Z,3.83
2023-04-26T03:03:28.991Z,3.28
2023-04-26T03:05:56.300Z,3.45
2023-04-26T03:08:23.047Z,4.93
2023-04-26T03:10:49.637Z,4.72
2023-04-26T03:13:16.285Z,5.15
2023-04-26T03:15:46.433Z,4.90
2023-04-26T03:18:13.060Z,5.15
2023-04-26T03:20:39.827Z,4.43
2023-04-26T03:23:06.654Z,4.07
2023-04-26T03:25:33.555Z,3.85
2023-04-26T03:28:00.328Z,3.72
2023-04-26T03:30:26.914Z,3.30
2023-04-26T03:32:54.639Z,3.58
2023-04-26T03:35:21.420Z,3.35
2023-04-26T03:37:48.012Z,2.65
2023-04-26T03:40:18.517Z,2.90
2023-04-26T03:42:45.888Z,3.63
2023-04-26T03:45:12.454Z,3.60
2023-04-26T03:47:39.081Z,3.55
2023-04-26T03:50:08.314Z,2.55
2023-04-26T03:52:34.924Z,3.38
2023-04-26T03:55:02.588Z,3.10
2023-04-26T03:57:29.619Z,2.78
2023-04-26T03:59:56.269Z,5.50
2023-04-26T04:02:23.863Z,4.00
2023-04-26T04:04:50.658Z,4.22
2023-04-26T04:07:17.332Z,3.60
2023-04-26T04:09:44.113Z,3.75
2023-04-26T04:12:10.965Z,5.07
2023-04-26T04:14:37.964Z,4.25
2023-04-26T04:17:06.491Z,4.07
2023-04-26T04:19:33.909Z,5.03
2023-04-26T04:22:00.912Z,3.75
2023-04-26T04:24:29.698Z,3.58
2023-04-26T04:26:56.844Z,3.65
2023-04-26T04:29:23.451Z,4.05
2023-04-26T04:31:50.812Z,4.20
2023-04-26T04:34:17.580Z,4.60
2023-04-26T04:36:45.456Z,5.15
2023-04-26T04:39:16.092Z,5.15
2023-04-26T04:41:49.876Z,4.43
2023-04-26T04:44:18.653Z,5.10
2023-04-26T04:46:45.556Z,4.30
2023-04-26T04:49:13.230Z,4.68
2023-04-26T04:51:39.871Z,4.60
2023-04-26T04:54:17.863Z,4.22
2023-04-26T04:56:46.903Z,4.03
2023-04-26T04:59:15.197Z,4.05
2023-04-26T05:01:42.434Z,3.17
2023-04-26T05:04:13.261Z,3.40
2023-04-26T05:06:40.277Z,3.78
2023-04-26T05:09:06.910Z,3.75
2023-04-26T05:11:34.252Z,3.88
2023-04-26T05:14:02.190Z,3.85
2023-04-26T05:16:29.377Z,4.80
2023-04-26T05:18:57.320Z,5.18
2023-04-26T05:21:24.088Z,7.32
2023-04-26T05:23:51.441Z,5.28
2023-04-26T05:26:18.750Z,4.82
2023-04-26T05:28:58.128Z,6.55
2023-04-26T05:31:40.063Z,4.25
2023-04-26T05:34:20.283Z,4.80
2023-04-26T05:36:51.588Z,5.43
2023-04-26T05:39:20.402Z,6.93
2023-04-26T05:41:47.636Z,17.65
2023-04-26T05:44:14.763Z,9.88
2023-04-26T05:46:41.420Z,8.05
2023-04-26T05:49:09.675Z,5.47
2023-04-26T05:51:36.351Z,6.88
2023-04-26T05:54:03.783Z,5.95
2023-04-26T05:56:30.971Z,7.55
2023-04-26T05:58:57.985Z,6.57
2023-04-26T06:01:24.696Z,6.95
2023-04-26T06:03:53.653Z,6.68
2023-04-26T06:06:22.937Z,7.13
2023-04-26T06:08:49.537Z,8.70
2023-04-26T06:11:16.290Z,7.85
2023-04-26T06:13:43.428Z,7.82
2023-04-26T06:16:10.206Z,8.05
2023-04-26T06:18:37.383Z,9.90
2023-04-26T06:21:04.061Z,12.00
2023-04-26T06:23:30.923Z,6.60
2023-04-26T06:25:57.557Z,11.55
2023-04-26T06:28:24.679Z,9.70
2023-04-26T06:30:51.352Z,8.38
2023-04-26T06:33:18.013Z,9.02
2023-04-26T06:35:44.598Z,8.50
2023-04-26T06:38:12.905Z,7.53
2023-04-26T06:40:39.535Z,6.45
2023-04-26T06:43:06.136Z,6.25
2023-04-26T06:45:43.530Z,5.68
2023-04-26T06:48:12.049Z,7.30
2023-04-26T06:50:41.550Z,6.60
2023-04-26T06:53:08.411Z,7.32
2023-04-26T06:55:35.156Z,7.85
2023-04-26T06:58:01.753Z,8.18
2023-04-26T07:00:28.542Z,7.00
2023-04-26T07:02:55.420Z,8.20
2023-04-26T07:05:22.583Z,7.50
2023-04-26T07:07:50.406Z,7.95
2023-04-26T07:10:17.197Z,6.97
2023-04-26T07:12:43.835Z,6.88
2023-04-26T07:15:10.810Z,6.75
2023-04-26T07:17:37.463Z,7.07
2023-04-26T07:20:04.594Z,7.22
2023-04-26T07:22:31.483Z,6.53
2023-04-26T07:24:58.056Z,6.47
2023-04-26T07:27:25.039Z,6.25
2023-04-26T07:29:55.304Z,7.35
2023-04-26T07:32:21.897Z,6.18
2023-04-26T07:34:48.502Z,6.55
2023-04-26T07:37:15.084Z,7.75
2023-04-26T07:39:41.670Z,7.07
2023-04-26T07:42:08.247Z,8.27
2023-04-26T07:44:34.875Z,7.07
2023-04-26T07:47:01.485Z,7.05
2023-04-26T07:49:28.079Z,7.07
2023-04-26T07:51:56.361Z,7.35
2023-04-26T07:54:22.950Z,8.52
2023-04-26T07:56:49.561Z,6.13
2023-04-26T07:59:16.325Z,6.80
2023-04-26T08:01:42.941Z,6.55
2023-04-26T08:04:09.690Z,7.00
2023-04-26T08:06:38.766Z,6.40
2023-04-26T08:09:05.525Z,6.47
2023-04-26T08:11:32.648Z,6.80
2023-04-26T08:13:59.420Z,5.88
2023-04-26T08:16:26.062Z,6.82
2023-04-26T08:18:52.691Z,6.85
2023-04-26T08:21:19.269Z,6.05
2023-04-26T08:23:45.859Z,8.98
2023-04-26T08:26:12.504Z,5.88
2023-04-26T08:28:39.210Z,5.78
2023-04-26T08:31:05.845Z,6.03
2023-04-26T08:33:32.427Z,5.43
2023-04-26T08:36:01.150Z,5.80
2023-04-26T08:38:27.901Z,5.63
2023-04-26T08:40:56.199Z,5.75
2023-04-26T08:43:23.123Z,4.80
2023-04-26T08:45:49.754Z,5.38
2023-04-26T08:48:18.224Z,5.53
2023-04-26T08:50:46.474Z,5.13
2023-04-26T08:53:20.048Z,5.82
2023-04-26T08:55:48.388Z,5.18
2023-04-26T08:58:15.816Z,5.03
2023-04-26T09:00:45.129Z,4.78
2023-04-26T09:03:12.084Z,4.35
2023-04-26T09:05:45.573Z,4.43
2023-04-26T09:08:16.687Z,5.13
2023-04-26T09:10:43.755Z,4.30
2023-04-26T09:13:11.333Z,5.53
2023-04-26T09:15:38.056Z,4.30
2023-04-26T09:18:21.901Z,4.68
2023-04-26T09:21:06.173Z,4.97
2023-04-26T09:23:33.011Z,5.47
2023-04-26T09:26:16.329Z,5.53
2023-04-26T09:28:43.029Z,4.47
2023-04-26T09:31:10.191Z,5.22
2023-04-26T09:33:36.833Z,4.97
2023-04-26T09:36:13.358Z,6.38
2023-04-26T09:38:43.422Z,5.60
2023-04-26T09:41:09.986Z,5.43
2023-04-26T09:43:39.495Z,4.80
2023-04-26T09:46:06.111Z,4.93
2023-04-26T09:48:34.676Z,6.07
2023-04-26T09:51:04.146Z,5.97
2023-04-26T09:53:39.000Z,5.45
2023-04-26T09:56:16.189Z,3.58
2023-04-26T09:58:58.190Z,4.50
2023-04-26T10:01:25.646Z,4.75
2023-04-26T10:03:53.087Z,4.13
2023-04-26T10:06:19.806Z,4.72
2023-04-26T10:08:46.867Z,4.95
2023-04-26T10:11:13.896Z,4.50
2023-04-26T10:13:41.535Z,4.95
2023-04-26T10:16:09.754Z,4.07
2023-04-26T10:18:36.685Z,4.80
2023-04-26T10:21:16.893Z,3.83
2023-04-26T10:23:43.669Z,3.63
2023-04-26T10:26:54.704Z,4.47
2023-04-26T10:29:22.204Z,3.88
2023-04-26T10:32:09.436Z,3.20
2023-04-26T10:34:37.069Z,4.00
2023-04-26T10:37:10.374Z,3.08
2023-04-26T10:39:37.468Z,3.28
2023-04-26T10:42:26.656Z,3.00
2023-04-26T10:44:53.573Z,2.45
2023-04-26T10:47:33.746Z,2.25
2023-04-26T10:50:11.087Z,2.80
2023-04-26T10:52:39.653Z,2.75
2023-04-26T10:55:07.507Z,2.00
2023-04-26T10:57:47.626Z,3.05
2023-04-26T11:00:21.172Z,2.80
2023-04-26T11:02:55.953Z,2.05
2023-04-26T11:05:47.414Z,2.38
2023-04-26T11:08:13.896Z,2.33
2023-04-26T11:10:41.091Z,2.20
2023-04-26T11:13:07.929Z,2.35
2023-04-26T11:15:35.032Z,2.72
2023-04-26T11:18:04.459Z,2.42
2023-04-26T11:20:32.392Z,2.20
2023-04-26T11:22:59.602Z,3.03
2023-04-26T11:25:28.278Z,2.22
2023-04-26T11:28:04.279Z,2.05
2023-04-26T11:30:31.816Z,3.97
2023-04-26T11:33:04.215Z,3.35
2023-04-26T11:35:34.744Z,2.63
2023-04-26T11:38:04.098Z,2.65
2023-04-26T11:40:31.739Z,2.78
2023-04-26T11:43:03.840Z,2.88
2023-04-26T11:45:32.387Z,3.10
2023-04-26T11:47:59.141Z,3.13
2023-04-26T11:50:26.880Z,2.30
2023-04-26T11:52:57.088Z,2.72
2023-04-26T11:55:25.812Z,3.03
2023-04-26T11:57:52.401Z,2.40
2023-04-26T12:00:20.119Z,5.38
2023-04-26T12:02:50.290Z,2.63
2023-04-26T12:05:30.514Z,3.15
2023-04-26T12:07:59.132Z,2.58
2023-04-26T12:10:27.928Z,2.78
2023-04-26T12:12:57.140Z,3.55
2023-04-26T12:15:25.842Z,2.75
2023-04-26T12:18:17.057Z,2.50
2023-04-26T12:20:46.469Z,3.05
2023-04-26T12:23:14.176Z,3.42
2023-04-26T12:25:42.225Z,2.90
2023-04-26T12:28:12.640Z,2.47
2023-04-26T12:30:40.388Z,2.38
2023-04-26T12:33:16.211Z,2.92
2023-04-26T12:35:44.096Z,2.47
2023-04-26T12:38:11.110Z,2.35
2023-04-26T12:40:37.909Z,2.22
2023-04-26T12:43:04.520Z,1.75
2023-04-26T12:45:31.304Z,1.98
2023-04-26T12:47:58.010Z,2.75
2023-04-26T12:50:24.692Z,3.35
2023-04-26T12:52:51.269Z,3.15
2023-04-26T12:55:17.875Z,2.95
2023-04-26T12:57:45.041Z,2.15
2023-04-26T13:00:13.439Z,2.35
2023-04-26T13:02:40.263Z,2.30
2023-04-26T13:05:08.332Z,2.13
2023-04-26T13:07:39.375Z,2.38
2023-04-26T13:10:07.350Z,2.53
2023-04-26T13:12:34.494Z,2.42
2023-04-26T13:15:01.169Z,2.33
2023-04-26T13:17:28.015Z,2.40
2023-04-26T13:19:54.725Z,2.25
2023-04-26T13:22:21.534Z,2.97
2023-04-26T13:24:48.145Z,2.92
2023-04-26T13:27:14.739Z,2.53
2023-04-26T13:29:42.008Z,2.35
2023-04-26T13:32:08.620Z,2.95
2023-04-26T13:34:35.184Z,2.70
2023-04-26T13:37:03.804Z,2.10
2023-04-26T13:39:30.510Z,2.40
2023-04-26T13:41:59.064Z,2.90
2023-04-26T13:44:26.055Z,2.75
2023-04-26T13:46:54.551Z,2.17
2023-04-26T13:49:22.888Z,2.50
2023-04-26T13:51:49.489Z,2.78
2023-04-26T13:54:16.804Z,3.10
2023-04-26T13:56:43.676Z,2.83
2023-04-26T13:59:10.452Z,2.90
2023-04-26T14:01:37.386Z,2.58
2023-04-26T14:04:04.543Z,2.35
2023-04-26T14:06:32.688Z,2.58
2023-04-26T14:08:59.381Z,2.38
2023-04-26T14:11:26.063Z,3.10
2023-04-26T14:13:56.015Z,2.70
2023-04-26T14:16:24.155Z,2.80
2023-04-26T14:18:51.029Z,2.92
2023-04-26T14:21:18.275Z,2.15
2023-04-26T14:23:44.935Z,3.05
2023-04-26T14:26:12.079Z,2.92
2023-04-26T14:28:39.123Z,2.83
2023-04-26T14:31:05.733Z,2.38
2023-04-26T14:33:32.373Z,2.70
2023-04-26T14:35:58.984Z,2.20
2023-04-26T14:38:25.732Z,2.67
2023-04-26T14:40:52.331Z,2.22
2023-04-26T14:43:18.940Z,2.10
2023-04-26T14:45:45.668Z,2.80
2023-04-26T14:48:12.579Z,3.28
2023-04-26T14:50:39.205Z,2.50
2023-04-26T14:53:05.835Z,2.17
2023-04-26T14:55:32.439Z,3.58
2023-04-26T14:57:59.220Z,2.22
2023-04-26T15:00:25.914Z,2.47
2023-04-26T15:02:52.641Z,2.72
2023-04-26T15:05:21.142Z,2.40
2023-04-26T15:07:47.702Z,2.83
2023-04-26T15:10:14.261Z,2.53
2023-04-26T15:12:40.885Z,2.05
2023-04-26T15:15:07.714Z,3.40
2023-04-26T15:17:34.317Z,2.00
2023-04-26T15:20:01.150Z,2.47
2023-04-26T15:22:27.828Z,2.03
2023-04-26T15:24:54.594Z,2.10
2023-04-26T15:27:21.307Z,1.95
2023-04-26T15:29:48.199Z,2.20
2023-04-26T15:32:14.804Z,2.72
2023-04-26T15:34:45.865Z,2.00
2023-04-26T15:37:12.552Z,2.38
2023-04-26T15:39:39.138Z,2.47
2023-04-26T15:42:05.811Z,2.20
2023-04-26T15:44:32.882Z,1.80
2023-04-26T15:47:01.381Z,2.38
2023-04-26T15:49:28.674Z,2.28
2023-04-26T15:51:55.351Z,2.58
2023-04-26T15:54:22.167Z,1.63
2023-04-26T15:56:48.759Z,1.90
2023-04-26T15:59:15.311Z,1.67
2023-04-26T16:01:42.028Z,1.90
2023-04-26T16:04:08.905Z,3.40
2023-04-26T16:06:35.701Z,2.28
2023-04-26T16:09:17.277Z,2.13
2023-04-26T16:11:50.392Z,2.13
2023-04-26T16:14:16.971Z,2.03
2023-04-26T16:16:45.774Z,2.40
2023-04-26T16:19:13.000Z,2.03
2023-04-26T16:21:40.660Z,1.67
2023-04-26T16:24:09.162Z,2.17
2023-04-26T16:26:36.201Z,2.28
2023-04-26T16:29:04.273Z,2.25
2023-04-26T16:31:32.246Z,2.42
2023-04-26T16:33:59.284Z,2.28
2023-04-26T16:36:27.369Z,2.80
2023-04-26T16:38:54.517Z,2.88
2023-04-26T16:41:23.052Z,1.83
2023-04-26T16:43:52.476Z,2.45
2023-04-26T16:46:19.473Z,2.30
2023-04-26T16:48:46.197Z,2.40
2023-04-26T16:51:13.114Z,2.40
2023-04-26T16:53:39.755Z,1.95
2023-04-26T16:58:33.612Z,2.28
2023-04-26T17:01:00.211Z,2.45
2023-04-26T17:03:28.297Z,2.08
2023-04-26T17:05:55.050Z,1.85
2023-04-26T17:08:21.966Z,2.25
2023-04-26T17:10:48.765Z,2.42
2023-04-26T17:13:15.456Z,2.63
2023-04-26T17:15:43.430Z,2.35
2023-04-26T17:18:10.855Z,2.38
2023-04-26T17:20:37.596Z,1.75
2023-04-26T17:23:04.308Z,2.15
2023-04-26T17:25:31.514Z,2.35
2023-04-26T17:27:58.184Z,2.60
2023-04-26T17:30:24.883Z,2.00
2023-04-26T17:32:51.571Z,2.17
2023-04-26T17:35:18.428Z,2.40
2023-04-26T17:37:49.968Z,1.80
2023-04-26T17:40:18.229Z,2.25
2023-04-26T17:42:46.109Z,1.83
2023-04-26T17:45:14.139Z,2.05
2023-04-26T17:47:42.388Z,2.55
2023-04-26T17:50:09.629Z,2.75
2023-04-26T17:52:36.943Z,2.42
2023-04-26T17:55:05.175Z,2.40
2023-04-26T17:57:31.914Z,2.60
2023-04-26T17:59:58.488Z,1.73
2023-04-26T18:02:25.335Z,2.17
2023-04-26T18:04:53.435Z,2.03
2023-04-26T18:07:20.441Z,2.28
2023-04-26T18:09:47.244Z,3.75
2023-04-26T18:12:13.821Z,2.28
2023-04-26T18:14:44.628Z,2.92
2023-04-26T18:17:12.889Z,2.38
2023-04-26T18:19:40.195Z,2.72
2023-04-26T18:22:07.590Z,2.75
2023-04-26T18:24:35.178Z,2.42
2023-04-26T18:27:02.606Z,1.90
2023-04-26T18:29:29.764Z,2.25
2023-04-26T18:31:56.396Z,2.30
2023-04-26T18:34:22.945Z,2.75
2023-04-26T18:36:49.676Z,2.47
2023-04-26T18:39:16.624Z,3.60
2023-04-26T18:41:43.785Z,2.75
2023-04-26T18:44:13.342Z,2.97
2023-04-26T18:46:41.570Z,2.70
2023-04-26T18:49:08.915Z,2.72
2023-04-26T18:51:35.558Z,2.85
2023-04-26T18:54:02.221Z,2.35
2023-04-26T18:56:29.447Z,2.53
2023-04-26T18:58:56.345Z,3.97
2023-04-26T19:01:23.262Z,2.92
2023-04-26T19:03:50.008Z,2.90
2023-04-26T19:06:16.799Z,3.03
2023-04-26T19:08:44.307Z,2.83
2023-04-26T19:11:12.624Z,2.55
2023-04-26T19:13:40.117Z,2.88
2023-04-26T19:16:07.467Z,3.35
2023-04-26T19:18:34.243Z,3.30
2023-04-26T19:21:04.711Z,3.30
2023-04-26T19:23:31.665Z,2.97
2023-04-26T19:26:03.336Z,2.83
2023-04-26T19:28:29.921Z,3.30
2023-04-26T19:30:56.825Z,2.90
2023-04-26T19:33:23.632Z,3.42
2023-04-26T19:35:50.202Z,4.38
2023-04-26T19:38:16.776Z,4.38
2023-04-26T19:40:44.404Z,3.28
2023-04-26T19:43:11.033Z,3.50
2023-04-26T19:45:40.707Z,3.80
2023-04-26T19:48:08.682Z,3.83
2023-04-26T19:50:42.869Z,4.13
2023-04-26T19:53:10.609Z,5.32
2023-04-26T19:55:37.979Z,4.38
2023-04-26T19:58:07.912Z,5.20
2023-04-26T20:00:38.532Z,4.85
2023-04-26T20:03:05.623Z,4.47
2023-04-26T20:05:33.503Z,6.82
2023-04-26T20:08:00.171Z,6.05
2023-04-26T20:10:30.088Z,7.13
2023-04-26T20:12:56.954Z,8.48
2023-04-26T20:15:24.150Z,8.10
2023-04-26T20:17:50.892Z,7.15
2023-04-26T20:20:17.594Z,7.93
2023-04-26T20:22:44.398Z,7.82
2023-04-26T20:25:11.011Z,7.15
2023-04-26T20:27:37.820Z,6.10
2023-04-26T20:30:04.859Z,5.38
2023-04-26T20:32:31.609Z,5.00
2023-04-26T20:34:58.277Z,4.88
2023-04-26T20:37:24.895Z,4.35
2023-04-26T20:39:51.507Z,4.30
2023-04-26T20:42:18.129Z,5.22
2023-04-26T20:44:44.697Z,4.95
2023-04-26T20:47:11.319Z,4.75
2023-04-26T20:49:37.904Z,5.13
2023-04-26T20:52:04.661Z,4.22
2023-04-26T20:54:31.841Z,4.82
2023-04-26T20:56:58.541Z,4.10
2023-04-26T20:59:25.658Z,4.38
2023-04-26T21:01:55.297Z,4.38
2023-04-26T21:04:22.132Z,5.85
2023-04-26T21:06:48.927Z,4.63
2023-04-26T21:09:16.149Z,4.22
2023-04-26T21:11:42.724Z,4.90
2023-04-26T21:14:09.396Z,4.30
2023-04-26T21:16:36.200Z,4.00
2023-04-26T21:19:03.412Z,4.20
2023-04-26T21:21:30.171Z,4.28
2023-04-26T21:23:57.078Z,5.15
2023-04-26T21:26:23.695Z,4.03
2023-04-26T21:28:50.442Z,3.85
2023-04-26T21:31:17.092Z,4.28
2023-04-26T21:33:43.694Z,3.88
2023-04-26T21:36:10.348Z,4.47
2023-04-26T21:38:36.920Z,5.05
2023-04-26T21:41:03.491Z,10.65
2023-04-26T21:43:30.531Z,7.38
2023-04-26T21:45:58.139Z,4.43
2023-04-26T21:48:26.160Z,4.95
2023-04-26T21:50:52.793Z,4.03
2023-04-26T21:53:19.385Z,4.30
2023-04-26T21:55:51.469Z,4.47
2023-04-26T21:58:18.737Z,3.53
2023-04-26T22:00:45.481Z,3.92
2023-04-26T22:03:12.794Z,4.40
2023-04-26T22:05:39.458Z,3.75
2023-04-26T22:08:06.137Z,3.83
2023-04-26T22:10:32.935Z,4.00
2023-04-26T22:12:59.731Z,4.25
2023-04-26T22:15:26.446Z,4.43
2023-04-26T22:17:53.033Z,3.78
2023-04-26T22:20:19.682Z,4.43
2023-04-26T22:22:46.416Z,4.32
2023-04-26T22:25:12.957Z,3.63
2023-04-26T22:27:39.538Z,3.42
2023-04-26T22:30:23.039Z,4.20
2023-04-26T22:32:53.725Z,4.43
2023-04-26T22:35:20.814Z,4.63
2023-04-26T22:37:47.757Z,4.68
2023-04-26T22:40:15.165Z,4.93
2023-04-26T22:42:42.394Z,4.85
2023-04-26T22:45:09.826Z,4.20
2023-04-26T22:47:36.554Z,4.22
2023-04-26T22:50:03.883Z,4.35
2023-04-26T22:52:32.092Z,4.53
2023-04-26T22:54:59.865Z,3.97
2023-04-26T22:57:26.854Z,5.28
2023-04-26T22:59:53.444Z,5.40
2023-04-26T23:02:20.886Z,5.28
2023-04-26T23:04:47.717Z,5.25
2023-04-26T23:07:14.337Z,5.18
2023-04-26T23:09:41.187Z,5.60
2023-04-26T23:12:07.857Z,6.03
2023-04-26T23:14:35.057Z,5.43
2023-04-26T23:17:02.723Z,5.00
2023-04-26T23:19:29.511Z,5.00
2023-04-26T23:21:56.357Z,4.65
2023-04-26T23:24:22.939Z,5.40
2023-04-26T23:26:49.626Z,6.25
2023-04-26T23:29:16.618Z,5.30
2023-04-26T23:31:43.293Z,5.05
2023-04-26T23:34:09.941Z,5.57
2023-04-26T23:36:36.550Z,4.65
2023-04-26T23:39:03.791Z,6.25
2023-04-26T23:41:30.892Z,5.10
2023-04-26T23:43:57.517Z,5.30
2023-04-26T23:46:24.238Z,5.28
2023-04-26T23:48:50.977Z,4.88
2023-04-26T23:51:17.851Z,4.00
2023-04-26T23:53:44.948Z,4.75
2023-04-26T23:56:11.644Z,4.32
2023-04-26T23:58:38.356Z,4.45
